createdAt,value
2018-09-27T00:01:32.505Z,103077.09
2018-09-27T00:04:01.637Z,103075.43
2018-09-27T00:06:30.840Z,103081.73
2018-09-27T00:09:00.259Z,103076.80
2018-09-27T00:11:29.420Z,103087.05
2018-09-27T00:13:58.459Z,103087.58
2018-09-27T00:16:29.848Z,103097.73
2018-09-27T00:18:59.006Z,103100.42
2018-09-27T00:21:28.195Z,103096.98
2018-09-27T00:23:57.282Z,103094.66
2018-09-27T00:26:26.389Z,103091.95
2018-09-27T00:28:56.089Z,103082.88
2018-09-27T00:31:25.371Z,103089.55
2018-09-27T00:33:54.466Z,103079.96
2018-09-27T00:36:23.557Z,103077.42
2018-09-27T00:38:52.753Z,103080.47
2018-09-27T00:41:21.801Z,103078.27
2018-09-27T00:43:50.841Z,103074.71
2018-09-27T00:46:19.892Z,103073.98
2018-09-27T00:48:48.958Z,103077.66
2018-09-27T00:51:18.101Z,103072.33
2018-09-27T00:53:47.152Z,103077.02
2018-09-27T00:56:16.427Z,103069.09
2018-09-27T00:58:45.625Z,103070.66
2018-09-27T01:01:14.788Z,103063.45
2018-09-27T01:03:44.019Z,103067.20
2018-09-27T01:06:13.079Z,103063.86
2018-09-27T01:08:42.107Z,103060.72
2018-09-27T01:11:11.242Z,103060.30
2018-09-27T01:13:40.293Z,103060.73
2018-09-27T01:16:09.851Z,103055.09
2018-09-27T01:18:38.924Z,103058.32
2018-09-27T01:21:08.229Z,103059.98
2018-09-27T01:23:37.347Z,103045.98
2018-09-27T01:26:06.423Z,103048.70
2018-09-27T01:28:35.609Z,103039.93
2018-09-27T01:31:05.148Z,103041.16
2018-09-27T01:33:34.262Z,103039.08
2018-09-27T01:36:03.319Z,103041.46
2018-09-27T01:38:32.350Z,103025.73
2018-09-27T01:41:01.399Z,103019.25
2018-09-27T01:43:30.459Z,103016.41
2018-09-27T01:45:59.583Z,103012.55
2018-09-27T01:48:28.674Z,103011.11
2018-09-27T01:50:57.830Z,103008.28
2018-09-27T01:53:27.429Z,103001.70
2018-09-27T01:55:56.606Z,103004.42
2018-09-27T01:58:25.656Z,103000.35
2018-09-27T02:00:54.853Z,102998.78
2018-09-27T02:03:23.971Z,102996.16
2018-09-27T02:05:53.041Z,102995.22
2018-09-27T02:08:22.236Z,102991.46
2018-09-27T02:10:51.439Z,102991.38
2018-09-27T02:13:20.561Z,102991.67
2018-09-27T02:15:49.661Z,102978.32
2018-09-27T02:18:18.712Z,102985.31
2018-09-27T02:20:47.794Z,102979.55
2018-09-27T02:23:16.903Z,102968.41
2018-09-27T02:25:46.036Z,102966.42
2018-09-27T02:28:15.205Z,102966.51
2018-09-27T02:30:44.260Z,102964.09
2018-09-27T02:33:13.314Z,102960.96
2018-09-27T02:35:42.393Z,102953.58
2018-09-27T02:38:11.558Z,102954.94
2018-09-27T02:40:40.673Z,102953.58
2018-09-27T02:43:09.879Z,102946.80
2018-09-27T02:45:40.088Z,102942.92
2018-09-27T02:48:09.175Z,102950.12
2018-09-27T02:50:38.349Z,102944.81
2018-09-27T02:53:07.421Z,102943.77
2018-09-27T02:55:36.565Z,102941.05
2018-09-27T02:58:05.660Z,102940.62
2018-09-27T03:00:34.779Z,102939.15
2018-09-27T03:03:03.869Z,102941.31
2018-09-27T03:05:33.099Z,102939.63
2018-09-27T03:08:03.098Z,102931.83
2018-09-27T03:10:32.157Z,102938.09
2018-09-27T03:13:01.280Z,102937.88
2018-09-27T03:15:30.476Z,102931.11
2018-09-27T03:17:59.571Z,102929.11
2018-09-27T03:20:28.673Z,102917.22
2018-09-27T03:22:57.911Z,102919.93
2018-09-27T03:25:27.116Z,102913.88
2018-09-27T03:27:56.701Z,102913.03
2018-09-27T03:30:25.803Z,102911.16
2018-09-27T03:32:54.946Z,102916.66
2018-09-27T03:35:24.053Z,102912.69
2018-09-27T03:37:53.234Z,102908.70
2018-09-27T03:40:22.568Z,102897.36
2018-09-27T03:42:52.340Z,102895.41
2018-09-27T03:45:21.443Z,102889.78
2018-09-27T03:47:50.514Z,102884.95
2018-09-27T03:50:19.587Z,102886.52
2018-09-27T03:52:48.671Z,102879.75
2018-09-27T03:55:17.744Z,102882.37
2018-09-27T03:57:46.964Z,102886.14
2018-09-27T04:00:16.922Z,102879.58
2018-09-27T04:02:46.033Z,102881.23
2018-09-27T04:05:15.077Z,102875.69
2018-09-27T04:07:44.200Z,102877.45
2018-09-27T04:10:13.243Z,102875.63
2018-09-27T04:12:42.388Z,102860.86
2018-09-27T04:15:11.464Z,102857.73
2018-09-27T04:17:40.600Z,102852.73
2018-09-27T04:20:09.684Z,102852.02
2018-09-27T04:22:38.847Z,102848.98
2018-09-27T04:25:07.918Z,102844.91
2018-09-27T04:27:36.981Z,102850.96
2018-09-27T04:30:07.452Z,102846.52
2018-09-27T04:32:37.480Z,102845.97
2018-09-27T04:35:06.628Z,102849.02
2018-09-27T04:37:35.703Z,102849.52
2018-09-27T04:40:05.029Z,102850.37
2018-09-27T04:42:34.255Z,102844.10
2018-09-27T04:45:03.902Z,102853.54
2018-09-27T04:47:32.985Z,102849.27
2018-09-27T04:50:03.474Z,102856.55
2018-09-27T04:52:33.646Z,102849.89
2018-09-27T04:55:02.817Z,102852.73
2018-09-27T04:57:31.846Z,102852.95
2018-09-27T05:00:00.939Z,102848.46
2018-09-27T05:02:30.080Z,102853.33
2018-09-27T05:04:59.173Z,102853.74
2018-09-27T05:07:28.372Z,102856.41
2018-09-27T05:09:57.695Z,102844.43
2018-09-27T05:12:26.769Z,102845.48
2018-09-27T05:14:55.864Z,102842.05
2018-09-27T05:17:24.984Z,102847.14
2018-09-27T05:19:54.052Z,102848.35
2018-09-27T05:22:23.257Z,102849.48
2018-09-27T05:24:52.557Z,102850.13
2018-09-27T05:27:21.765Z,102851.06
2018-09-27T05:29:50.849Z,102852.41
2018-09-27T05:32:20.068Z,102853.05
2018-09-27T05:34:49.467Z,102848.78
2018-09-27T05:37:18.558Z,102849.63
2018-09-27T05:39:47.668Z,102852.33
2018-09-27T05:42:17.958Z,102860.53
2018-09-27T05:44:47.076Z,102852.27
2018-09-27T05:47:16.157Z,102852.05
2018-09-27T05:49:45.585Z,102853.40
2018-09-27T05:52:14.693Z,102850.48
2018-09-27T05:54:43.784Z,102850.05
2018-09-27T05:57:12.841Z,102848.40
2018-09-27T05:59:41.897Z,102845.69
2018-09-27T06:02:11.376Z,102837.45
2018-09-27T06:04:40.566Z,102846.28
2018-09-27T06:07:09.867Z,102835.66
2018-09-27T06:09:39.483Z,102837.86
2018-09-27T06:12:08.517Z,102841.71
2018-09-27T06:14:37.722Z,102839.64
2018-09-27T06:17:07.652Z,102834.94
2018-09-27T06:19:36.854Z,102835.25
2018-09-27T06:22:06.028Z,102840.28
2018-09-27T06:24:35.196Z,102836.65
2018-09-27T06:27:04.728Z,102833.86
2018-09-27T06:29:33.877Z,102838.73
2018-09-27T06:32:03.051Z,102838.00
2018-09-27T06:34:32.322Z,102836.52
2018-09-27T06:37:01.339Z,102831.95
2018-09-27T06:39:30.356Z,102838.64
2018-09-27T06:41:59.541Z,102834.80
2018-09-27T06:44:28.797Z,102839.93
2018-09-27T06:46:57.876Z,102840.02
2018-09-27T06:49:27.120Z,102834.43
2018-09-27T06:51:56.298Z,102831.39
2018-09-27T06:54:25.364Z,102832.03
2018-09-27T06:56:54.494Z,102834.53
2018-09-27T06:59:23.587Z,102833.30
2018-09-27T07:01:52.763Z,102832.16
2018-09-27T07:04:21.827Z,102829.46
2018-09-27T07:06:50.902Z,102834.20
2018-09-27T07:09:20.085Z,102833.94
2018-09-27T07:11:51.449Z,102823.73
2018-09-27T07:14:20.919Z,102823.75
2018-09-27T07:16:50.144Z,102808.77
2018-09-27T07:19:19.191Z,102811.53
2018-09-27T07:21:48.336Z,102809.66
2018-09-27T07:24:17.439Z,102812.66
2018-09-27T07:26:46.876Z,102809.06
2018-09-27T07:29:16.098Z,102817.09
2018-09-27T07:31:45.614Z,102813.40
2018-09-27T07:34:15.107Z,102808.10
2018-09-27T07:36:44.270Z,102801.05
2018-09-27T07:39:13.744Z,102804.80
2018-09-27T07:41:43.412Z,102800.94
2018-09-27T07:44:13.270Z,102801.78
2018-09-27T07:46:42.380Z,102801.66
2018-09-27T07:49:12.970Z,102799.80
2018-09-27T07:51:43.398Z,102795.85
2018-09-27T07:54:12.606Z,102796.44
2018-09-27T07:56:41.705Z,102796.17
2018-09-27T07:59:10.927Z,102799.58
2018-09-27T08:01:40.967Z,102800.73
2018-09-27T08:04:10.221Z,102800.86
2018-09-27T08:06:40.568Z,102805.49
2018-09-27T08:09:10.349Z,102802.82
2018-09-27T08:11:39.898Z,102795.73
2018-09-27T08:14:10.015Z,102797.71
2018-09-27T08:16:39.451Z,102797.52
2018-09-27T08:19:08.731Z,102794.41
2018-09-27T08:21:37.955Z,102797.98
2018-09-27T08:24:08.257Z,102789.58
2018-09-27T08:26:38.588Z,102790.24
2018-09-27T08:29:24.048Z,102789.30
2018-09-27T08:31:53.296Z,102792.20
2018-09-27T08:34:22.488Z,102794.56
2018-09-27T08:36:51.628Z,102785.86
2018-09-27T08:39:20.693Z,102790.47
2018-09-27T08:41:49.804Z,102787.81
2018-09-27T08:44:19.280Z,102787.58
2018-09-27T08:46:48.652Z,102788.17
2018-09-27T08:49:18.064Z,102790.66
2018-09-27T08:51:47.758Z,102785.23
2018-09-27T08:54:17.280Z,102791.61
2018-09-27T08:56:46.573Z,102780.97
2018-09-27T08:59:16.345Z,102786.74
2018-09-27T09:01:46.561Z,102787.34
2018-09-27T09:04:16.504Z,102783.80
2018-09-27T09:06:45.641Z,102787.13
2018-09-27T09:09:14.670Z,102778.48
2018-09-27T09:11:44.757Z,102774.17
2018-09-27T09:14:14.780Z,102774.00
2018-09-27T09:16:44.809Z,102769.23
2018-09-27T09:19:21.097Z,102770.21
2018-09-27T09:21:50.316Z,102758.86
2018-09-27T09:24:19.494Z,102760.04
2018-09-27T09:26:49.964Z,102752.78
2018-09-27T09:29:19.338Z,102745.52
2018-09-27T09:31:48.579Z,102742.88
2018-09-27T09:34:17.741Z,102735.61
2018-09-27T09:36:47.255Z,102740.55
2018-09-27T09:39:16.481Z,102735.70
2018-09-27T09:41:45.607Z,102729.20
2018-09-27T09:44:14.728Z,102729.30
2018-09-27T09:46:43.992Z,102719.79
2018-09-27T09:49:15.186Z,102719.34
2018-09-27T09:51:44.646Z,102723.81
2018-09-27T09:54:14.100Z,102710.28
2018-09-27T09:56:44.208Z,102715.30
2018-09-27T09:59:13.277Z,102716.20
2018-09-27T10:01:42.490Z,102715.61
2018-09-27T10:04:11.698Z,102709.91
2018-09-27T10:06:43.112Z,102708.08
2018-09-27T10:09:13.407Z,102699.67
2018-09-27T10:11:42.567Z,102701.45
2018-09-27T10:14:11.933Z,102700.41
2018-09-27T10:16:41.023Z,102690.83
2018-09-27T10:19:10.087Z,102688.95
2018-09-27T10:21:40.788Z,102695.29
2018-09-27T10:24:10.841Z,102693.72
2018-09-27T10:26:40.005Z,102686.34
2018-09-27T10:29:09.105Z,102691.56
2018-09-27T10:31:39.079Z,102691.89
2018-09-27T10:34:08.697Z,102687.53
2018-09-27T10:36:37.790Z,102694.95
2018-09-27T10:39:10.283Z,102695.00
2018-09-27T10:41:40.206Z,102689.63
2018-09-27T10:44:09.374Z,102692.09
2018-09-27T10:46:38.444Z,102685.92
2018-09-27T10:49:08.028Z,102693.67
2018-09-27T10:51:37.152Z,102691.81
2018-09-27T10:54:07.250Z,102694.42
2018-09-27T10:56:48.213Z,102685.48
2018-09-27T10:59:17.378Z,102687.16
2018-09-27T11:04:39.305Z,102679.41
2018-09-27T11:07:08.502Z,102677.99
2018-09-27T11:09:38.687Z,102673.83
2018-09-27T11:12:08.093Z,102669.05
2018-09-27T11:14:37.324Z,102678.54
2018-09-27T11:17:06.899Z,102670.89
2018-09-27T11:19:36.053Z,102674.59
2018-09-27T11:22:05.190Z,102671.52
2018-09-27T11:24:34.604Z,102671.79
2018-09-27T11:27:03.916Z,102669.31
2018-09-27T11:29:39.164Z,102679.73
2018-09-27T11:32:51.076Z,102669.36
2018-09-27T11:35:20.412Z,102672.16
2018-09-27T11:37:49.575Z,102674.67
2018-09-27T11:40:20.629Z,102673.85
2018-09-27T11:42:49.868Z,102675.05
2018-09-27T11:45:20.177Z,102664.47
2018-09-27T11:47:50.560Z,102662.58
2018-09-27T11:50:19.805Z,102658.23
2018-09-27T11:52:48.920Z,102659.34
2018-09-27T11:55:18.124Z,102658.86
2018-09-27T11:57:48.383Z,102660.81
2018-09-27T12:00:17.817Z,102661.53
2018-09-27T12:02:46.875Z,102649.55
2018-09-27T12:05:16.067Z,102656.17
2018-09-27T12:07:45.289Z,102650.42
2018-09-27T12:10:14.794Z,102643.27
2018-09-27T12:12:51.861Z,102649.02
2018-09-27T12:15:21.318Z,102647.11
2018-09-27T12:17:50.702Z,102646.80
2018-09-27T12:20:20.002Z,102646.53
2018-09-27T12:22:50.323Z,102638.31
2018-09-27T12:25:19.726Z,102625.48
2018-09-27T12:27:48.850Z,102629.97
2018-09-27T12:30:18.108Z,102621.22
2018-09-27T12:32:47.319Z,102616.00
2018-09-27T12:35:16.376Z,102614.13
2018-09-27T12:37:47.443Z,102612.56
2018-09-27T12:40:17.343Z,102601.92
2018-09-27T12:42:46.647Z,102603.33
2018-09-27T12:45:15.944Z,102597.61
2018-09-27T12:47:45.044Z,102592.98
2018-09-27T12:50:14.140Z,102588.60
2018-09-27T12:52:43.349Z,102582.79
2018-09-27T12:55:13.251Z,102588.78
2018-09-27T12:57:42.331Z,102581.66
2018-09-27T13:00:11.472Z,102573.43
2018-09-27T13:02:42.607Z,102579.48
2018-09-27T13:05:13.303Z,102583.59
2018-09-27T13:07:43.854Z,102576.05
2018-09-27T13:10:17.131Z,102575.23
2018-09-27T13:12:46.306Z,102574.94
2018-09-27T13:15:15.375Z,102575.23
2018-09-27T13:17:44.657Z,102568.89
2018-09-27T13:20:13.699Z,102566.17
2018-09-27T13:22:43.365Z,102555.75
2018-09-27T13:25:13.508Z,102559.36
2018-09-27T13:27:43.848Z,102558.27
2018-09-27T13:30:13.069Z,102558.55
2018-09-27T13:32:42.110Z,102554.72
2018-09-27T13:35:11.290Z,102559.41
2018-09-27T13:37:40.568Z,102553.66
2018-09-27T13:40:10.523Z,102559.45
2018-09-27T13:42:39.807Z,102557.83
2018-09-27T13:45:09.058Z,102555.94
2018-09-27T13:47:38.308Z,102549.92
2018-09-27T13:50:07.598Z,102560.66
2018-09-27T13:52:36.773Z,102558.20
2018-09-27T13:55:07.963Z,102562.89
2018-09-27T13:57:37.320Z,102563.68
2018-09-27T14:00:06.617Z,102561.19
2018-09-27T14:02:36.054Z,102565.02
2018-09-27T14:05:05.292Z,102569.44
2018-09-27T14:07:34.651Z,102573.03
2018-09-27T14:10:03.754Z,102558.73
2018-09-27T14:12:32.874Z,102560.66
2018-09-27T14:15:02.160Z,102560.47
2018-09-27T14:17:31.313Z,102561.28
2018-09-27T14:20:00.694Z,102557.19
2018-09-27T14:22:30.027Z,102557.22
2018-09-27T14:25:03.633Z,102564.11
2018-09-27T14:27:32.659Z,102559.45
2018-09-27T14:30:01.856Z,102558.87
2018-09-27T14:32:30.903Z,102559.98
2018-09-27T14:35:00.050Z,102551.17
2018-09-27T14:37:30.032Z,102554.20
2018-09-27T14:39:59.329Z,102554.47
2018-09-27T14:42:28.578Z,102549.27
2018-09-27T14:44:57.833Z,102546.24
2018-09-27T14:47:26.975Z,102544.55
2018-09-27T14:49:57.679Z,102543.73
2018-09-27T14:52:28.514Z,102541.23
2018-09-27T14:54:59.575Z,102539.30
2018-09-27T14:57:29.764Z,102537.12
2018-09-27T15:00:00.048Z,102530.55
2018-09-27T15:02:30.784Z,102531.91
2018-09-27T15:05:00.123Z,102526.99
2018-09-27T15:07:39.049Z,102527.27
2018-09-27T15:10:12.909Z,102533.60
2018-09-27T15:12:54.605Z,102527.57
2018-09-27T15:15:28.314Z,102527.55
2018-09-27T15:18:00.737Z,102523.99
2018-09-27T15:20:39.824Z,102524.55
2018-09-27T15:23:10.668Z,102518.75
2018-09-27T15:25:43.468Z,102524.79
2018-09-27T15:28:16.349Z,102528.09
2018-09-27T15:30:49.058Z,102516.81
2018-09-27T15:33:19.636Z,102519.02
2018-09-27T15:35:51.313Z,102516.55
2018-09-27T15:38:28.643Z,102516.54
2018-09-27T15:41:05.532Z,102509.92
2018-09-27T15:43:38.943Z,102519.27
2018-09-27T15:46:11.795Z,102517.61
2018-09-27T15:48:42.101Z,102513.50
2018-09-27T15:51:18.838Z,102511.03
2018-09-27T15:53:58.751Z,102517.05
2018-09-27T15:56:31.753Z,102512.41
2018-09-27T15:59:05.909Z,102515.14
2018-09-27T16:01:38.911Z,102511.84
2018-09-27T16:04:09.915Z,102513.20
2018-09-27T16:06:45.220Z,102509.05
2018-09-27T16:09:26.081Z,102515.34
2018-09-27T16:11:56.486Z,102511.77
2018-09-27T16:14:25.966Z,102520.53
2018-09-27T16:16:54.991Z,102514.73
2018-09-27T16:19:26.344Z,102518.02
2018-09-27T16:21:55.574Z,102507.03
2018-09-27T16:24:24.781Z,102512.47
2018-09-27T16:26:54.107Z,102515.48
2018-09-27T16:29:24.200Z,102515.23
2018-09-27T16:31:53.486Z,102509.44
2018-09-27T16:34:22.652Z,102504.77
2018-09-27T16:36:51.948Z,102509.16
2018-09-27T16:39:21.044Z,102509.11
2018-09-27T16:41:51.187Z,102508.58
2018-09-27T16:44:20.629Z,102502.23
2018-09-27T16:46:49.972Z,102513.45
2018-09-27T16:49:18.987Z,102513.16
2018-09-27T16:51:49.095Z,102521.63
2018-09-27T16:54:18.283Z,102519.70
2018-09-27T16:56:47.381Z,102521.28
2018-09-27T16:59:16.461Z,102522.92
2018-09-27T17:01:45.518Z,102520.99
2018-09-27T17:04:14.682Z,102518.19
2018-09-27T17:06:43.881Z,102529.72
2018-09-27T17:09:13.068Z,102523.11
2018-09-27T17:11:42.266Z,102518.97
2018-09-27T17:14:12.064Z,102517.03
2018-09-27T17:16:41.121Z,102520.34
2018-09-27T17:19:10.196Z,102521.98
2018-09-27T17:21:39.271Z,102533.74
2018-09-27T17:24:09.035Z,102532.08
2018-09-27T17:26:38.324Z,102534.22
2018-09-27T17:29:07.292Z,102532.84
2018-09-27T17:31:36.530Z,102530.91
2018-09-27T17:34:06.107Z,102525.69
2018-09-27T17:36:35.248Z,102532.20
2018-09-27T17:39:05.404Z,102539.02
2018-09-27T17:41:34.772Z,102535.14
2018-09-27T17:44:03.999Z,102537.58
2018-09-27T17:46:33.076Z,102524.87
2018-09-27T17:49:02.116Z,102536.62
2018-09-27T17:51:31.259Z,102535.48
2018-09-27T17:54:00.399Z,102534.30
2018-09-27T17:56:29.517Z,102541.06
2018-09-27T17:58:59.097Z,102541.77
2018-09-27T18:01:28.118Z,102536.98
2018-09-27T18:03:57.226Z,102541.25
2018-09-27T18:06:26.335Z,102544.95
2018-09-27T18:08:55.446Z,102541.19
2018-09-27T18:11:24.686Z,102547.86
2018-09-27T18:13:53.760Z,102546.90
2018-09-27T18:16:23.464Z,102548.94
2018-09-27T18:18:53.043Z,102556.22
2018-09-27T18:21:22.176Z,102550.91
2018-09-27T18:23:51.303Z,102558.52
2018-09-27T18:26:20.522Z,102555.98
2018-09-27T18:28:51.147Z,102553.18
2018-09-27T18:31:21.752Z,102566.77
2018-09-27T18:33:50.867Z,102570.77
2018-09-27T18:36:20.075Z,102567.68
2018-09-27T18:38:49.300Z,102567.30
2018-09-27T18:41:18.418Z,102571.31
2018-09-27T18:43:47.538Z,102571.18
2018-09-27T18:46:16.609Z,102571.05
2018-09-27T18:48:45.884Z,102578.38
2018-09-27T18:51:14.910Z,102572.52
2018-09-27T18:53:44.623Z,102571.81
2018-09-27T18:56:13.839Z,102580.20
2018-09-27T18:58:42.994Z,102586.16
2018-09-27T19:01:12.036Z,102583.63
2018-09-27T19:03:41.051Z,102599.08
2018-09-27T19:06:10.805Z,102601.96
2018-09-27T19:08:40.694Z,102600.19
2018-09-27T19:11:11.068Z,102604.44
2018-09-27T19:13:40.414Z,102601.30
2018-09-27T19:16:09.688Z,102602.81
2018-09-27T19:18:39.371Z,102597.72
2018-09-27T19:21:08.439Z,102601.68
2018-09-27T19:23:37.664Z,102606.48
2018-09-27T19:26:07.304Z,102608.33
2018-09-27T19:28:43.245Z,102606.62
2018-09-27T19:31:12.896Z,102605.72
2018-09-27T19:33:43.310Z,102597.73
2018-09-27T19:36:13.310Z,102611.80
2018-09-27T19:38:42.422Z,102599.03
2018-09-27T19:41:11.787Z,102614.48
2018-09-27T19:43:40.999Z,102608.29
2018-09-27T19:46:10.052Z,102608.94
2018-09-27T19:48:39.176Z,102616.17
2018-09-27T19:51:08.245Z,102610.95
2018-09-27T19:53:38.634Z,102612.03
2018-09-27T19:56:08.046Z,102617.77
2018-09-27T19:58:37.302Z,102616.73
2018-09-27T20:01:06.427Z,102613.80
2018-09-27T20:03:35.494Z,102609.67
2018-09-27T20:06:05.057Z,102609.91
2018-09-27T20:08:34.201Z,102611.52
2018-09-27T20:11:03.290Z,102611.09
2018-09-27T20:13:32.364Z,102606.56
2018-09-27T20:16:01.557Z,102601.73
2018-09-27T20:18:30.624Z,102603.81
2018-09-27T20:21:03.724Z,102600.38
2018-09-27T20:23:33.048Z,102595.69
2018-09-27T20:26:02.292Z,102601.06
2018-09-27T20:28:31.357Z,102594.77
2018-09-27T20:31:00.387Z,102597.05
2018-09-27T20:33:29.606Z,102594.92
2018-09-27T20:35:58.720Z,102592.00
2018-09-27T20:38:28.509Z,102595.04
2018-09-27T20:40:57.678Z,102606.82
2018-09-27T20:43:26.752Z,102607.95
2018-09-27T20:45:55.830Z,102594.63
2018-09-27T20:48:24.974Z,102591.95
2018-09-27T20:50:54.620Z,102605.45
2018-09-27T20:53:23.935Z,102605.76
2018-09-27T20:55:52.975Z,102603.03
2018-09-27T20:58:22.789Z,102615.82
2018-09-27T21:00:52.905Z,102609.53
2018-09-27T21:03:22.016Z,102616.66
2018-09-27T21:05:51.280Z,102611.21
2018-09-27T21:08:20.419Z,102612.26
2018-09-27T21:10:49.680Z,102617.39
2018-09-27T21:13:19.436Z,102619.52
2018-09-27T21:15:48.534Z,102624.05
2018-09-27T21:18:17.556Z,102631.06
2018-09-27T21:20:46.801Z,102627.30
2018-09-27T21:23:20.603Z,102632.02
2018-09-27T21:25:49.757Z,102628.58
2018-09-27T21:28:19.236Z,102626.61
2018-09-27T21:30:48.445Z,102624.36
2018-09-27T21:33:17.738Z,102630.25
2018-09-27T21:35:47.864Z,102624.81
2018-09-27T21:38:17.329Z,102637.06
2018-09-27T21:40:46.380Z,102642.83
2018-09-27T21:43:15.611Z,102640.10
2018-09-27T21:45:44.691Z,102629.97
2018-09-27T21:48:13.682Z,102632.85
2018-09-27T21:50:42.693Z,102636.05
2018-09-27T21:53:11.710Z,102644.45
2018-09-27T21:55:40.708Z,102639.40
2018-09-27T21:58:09.924Z,102641.44
2018-09-27T22:00:39.167Z,102641.62
2018-09-27T22:03:08.323Z,102643.66
2018-09-27T22:05:37.543Z,102645.17
2018-09-27T22:08:06.669Z,102650.25
2018-09-27T22:10:35.711Z,102643.67
2018-09-27T22:13:04.841Z,102642.17
2018-09-27T22:15:34.004Z,102636.28
2018-09-27T22:18:03.213Z,102649.09
2018-09-27T22:28:00.737Z,102643.66
2018-09-27T22:30:29.980Z,102653.98
2018-09-27T22:32:59.727Z,102640.33
2018-09-27T22:35:46.758Z,102649.90
2018-09-27T22:38:24.688Z,102647.03
2018-09-27T22:41:08.521Z,102638.35
2018-09-27T22:43:52.717Z,102643.56
2018-09-27T22:46:36.817Z,102647.73
2018-09-27T22:49:20.840Z,102662.31
2018-09-27T22:52:02.448Z,102658.43
2018-09-27T22:54:32.428Z,102662.22
2018-09-27T22:57:01.820Z,102656.25
2018-09-27T22:59:45.635Z,102666.30
2018-09-27T23:02:25.937Z,102659.12
2018-09-27T23:05:10.691Z,102662.31
2018-09-27T23:07:56.067Z,102674.55
2018-09-27T23:10:25.358Z,102674.23
2018-09-27T23:12:56.016Z,102680.73
2018-09-27T23:15:25.924Z,102686.33
2018-09-27T23:17:54.978Z,102688.81
2018-09-27T23:20:24.014Z,102685.25
2018-09-27T23:22:53.219Z,102686.62
2018-09-27T23:25:22.283Z,102690.92
2018-09-27T23:27:51.496Z,102695.52
2018-09-27T23:30:20.554Z,102690.41
2018-09-27T23:32:50.203Z,102693.22
2018-09-27T23:35:19.206Z,102692.66
2018-09-27T23:37:49.123Z,102694.34
2018-09-27T23:40:18.238Z,102700.39
2018-09-27T23:42:47.287Z,102709.97
2018-09-27T23:45:16.441Z,102709.75
2018-09-27T23:47:46.573Z,102709.22
2018-09-27T23:50:15.613Z,102703.78
2018-09-27T23:52:44.618Z,102704.91
2018-09-27T23:55:13.620Z,102701.88
2018-09-27T23:57:43.083Z,102698.69
